createdAt,value
2022-08-29T00:01:59.406Z,80.40
2022-08-29T00:04:26.362Z,79.40
2022-08-29T00:06:54.397Z,79.50
2022-08-29T00:09:21.311Z,79.50
2022-08-29T00:11:48.301Z,79.50
2022-08-29T00:14:21.093Z,79.40
2022-08-29T00:16:50.790Z,79.40
2022-08-29T00:19:17.470Z,79.40
2022-08-29T00:21:44.695Z,79.40
2022-08-29T00:24:11.476Z,79.50
2022-08-29T00:26:38.198Z,79.60
2022-08-29T00:29:04.955Z,79.50
2022-08-29T00:31:31.802Z,79.60
2022-08-29T00:33:58.559Z,79.70
2022-08-29T00:36:26.130Z,79.50
2022-08-29T00:38:58.307Z,79.60
2022-08-29T00:41:25.084Z,79.70
2022-08-29T00:43:51.741Z,79.60
2022-08-29T00:46:38.769Z,79.60
2022-08-29T00:49:08.516Z,79.60
2022-08-29T00:51:36.226Z,79.30
2022-08-29T00:54:04.755Z,79.10
2022-08-29T00:56:31.829Z,79.40
2022-08-29T00:59:04.070Z,79.00
2022-08-29T01:01:30.904Z,79.00
2022-08-29T01:03:57.718Z,79.10
2022-08-29T01:06:26.117Z,78.90
2022-08-29T01:08:57.415Z,78.90
2022-08-29T01:11:43.831Z,79.00
2022-08-29T01:14:10.523Z,79.10
2022-08-29T01:16:37.581Z,78.80
2022-08-29T01:19:11.191Z,79.00
2022-08-29T01:21:53.101Z,79.00
2022-08-29T01:24:22.596Z,79.00
2022-08-29T01:26:49.316Z,78.90
2022-08-29T01:29:16.466Z,79.00
2022-08-29T01:31:56.207Z,78.80
2022-08-29T01:34:25.095Z,78.90
2022-08-29T01:36:53.708Z,79.00
2022-08-29T01:39:22.205Z,79.50
2022-08-29T01:41:49.182Z,79.20
2022-08-29T01:44:19.081Z,79.30
2022-08-29T01:46:46.999Z,78.90
2022-08-29T01:49:14.302Z,78.90
2022-08-29T01:51:41.466Z,78.80
2022-08-29T01:54:09.130Z,78.80
2022-08-29T01:56:37.298Z,78.80
2022-08-29T01:59:05.718Z,78.60
2022-08-29T02:01:33.919Z,78.80
2022-08-29T02:04:00.582Z,78.50
2022-08-29T02:06:27.686Z,78.40
2022-08-29T02:08:54.749Z,78.60
2022-08-29T02:11:23.168Z,78.50
2022-08-29T02:13:51.571Z,78.70
2022-08-29T02:16:18.597Z,78.50
2022-08-29T02:18:45.837Z,78.60
2022-08-29T02:21:14.091Z,78.70
2022-08-29T02:23:41.338Z,78.60
2022-08-29T02:26:08.330Z,78.40
2022-08-29T02:28:36.066Z,78.50
2022-08-29T02:31:04.063Z,78.40
2022-08-29T02:33:31.421Z,78.80
2022-08-29T02:35:59.400Z,78.80
2022-08-29T02:38:27.454Z,78.70
2022-08-29T02:40:54.228Z,78.60
2022-08-29T02:43:21.513Z,78.60
2022-08-29T02:45:48.227Z,78.40
2022-08-29T02:48:15.591Z,78.50
2022-08-29T02:50:47.619Z,78.50
2022-08-29T02:53:16.449Z,78.30
2022-08-29T02:55:43.345Z,78.40
2022-08-29T02:58:10.074Z,78.40
2022-08-29T03:00:36.918Z,78.40
2022-08-29T03:03:04.763Z,78.80
2022-08-29T03:05:34.940Z,78.30
2022-08-29T03:08:02.991Z,78.40
2022-08-29T03:10:29.686Z,78.30
2022-08-29T03:12:56.435Z,78.30
2022-08-29T03:15:23.442Z,78.40
2022-08-29T03:17:50.423Z,78.20
2022-08-29T03:20:18.231Z,78.20
2022-08-29T03:22:45.556Z,78.30
2022-08-29T03:25:12.449Z,78.30
2022-08-29T03:27:39.174Z,78.40
2022-08-29T03:30:07.021Z,78.30
2022-08-29T03:32:33.713Z,78.40
2022-08-29T03:35:00.656Z,78.60
2022-08-29T03:37:27.562Z,78.50
2022-08-29T03:39:54.623Z,78.60
2022-08-29T03:42:21.481Z,78.50
2022-08-29T03:44:48.253Z,78.50
2022-08-29T03:47:15.683Z,78.50
2022-08-29T03:49:42.519Z,78.70
2022-08-29T03:52:09.542Z,78.30
2022-08-29T03:54:36.766Z,78.30
2022-08-29T03:57:07.837Z,78.10
2022-08-29T03:59:34.818Z,78.00
2022-08-29T04:02:01.709Z,78.10
2022-08-29T04:04:47.385Z,78.00
2022-08-29T04:07:14.909Z,78.00
2022-08-29T04:09:42.031Z,77.20
2022-08-29T04:12:11.399Z,78.20
2022-08-29T04:14:38.903Z,78.30
2022-08-29T04:17:07.071Z,78.10
2022-08-29T04:19:35.272Z,78.00
2022-08-29T04:22:04.893Z,78.10
2022-08-29T04:24:32.408Z,78.00
2022-08-29T04:26:59.174Z,78.10
2022-08-29T04:29:26.210Z,78.60
2022-08-29T04:31:53.075Z,78.30
2022-08-29T04:34:21.162Z,78.00
2022-08-29T04:36:48.311Z,78.50
2022-08-29T04:39:15.637Z,77.80
2022-08-29T04:41:42.997Z,78.00
2022-08-29T04:44:10.118Z,77.90
2022-08-29T04:46:36.787Z,77.70
2022-08-29T04:49:04.635Z,77.70
2022-08-29T04:51:32.934Z,77.80
2022-08-29T04:53:59.700Z,77.90
2022-08-29T04:56:26.431Z,77.80
2022-08-29T04:58:53.130Z,77.80
2022-08-29T05:01:21.259Z,78.00
2022-08-29T05:03:48.903Z,77.80
2022-08-29T05:06:16.582Z,77.70
2022-08-29T05:08:45.923Z,77.70
2022-08-29T05:11:14.634Z,78.10
2022-08-29T05:13:49.547Z,77.90
2022-08-29T05:16:16.891Z,77.90
2022-08-29T05:18:44.411Z,77.70
2022-08-29T05:21:12.384Z,77.50
2022-08-29T05:23:39.499Z,77.50
2022-08-29T05:26:06.435Z,77.40
2022-08-29T05:28:33.730Z,78.00
2022-08-29T05:31:00.914Z,77.60
2022-08-29T05:33:27.685Z,77.60
2022-08-29T05:35:54.488Z,77.60
2022-08-29T05:38:21.554Z,77.60
2022-08-29T05:40:48.361Z,77.50
2022-08-29T05:43:15.110Z,77.60
2022-08-29T05:45:42.905Z,77.40
2022-08-29T05:48:09.920Z,77.60
2022-08-29T05:50:41.902Z,77.40
2022-08-29T05:53:13.098Z,77.50
2022-08-29T05:55:43.941Z,77.40
2022-08-29T05:58:11.186Z,77.50
2022-08-29T06:00:39.260Z,77.60
2022-08-29T06:03:08.040Z,77.60
2022-08-29T06:05:34.886Z,77.60
2022-08-29T06:08:01.668Z,77.90
2022-08-29T06:10:28.558Z,77.30
2022-08-29T06:12:55.357Z,77.30
2022-08-29T06:15:22.603Z,77.40
2022-08-29T06:17:49.622Z,77.20
2022-08-29T06:20:16.279Z,77.20
2022-08-29T06:22:43.041Z,77.20
2022-08-29T06:25:35.140Z,76.80
2022-08-29T06:27:57.093Z,77.20
2022-08-29T06:30:23.756Z,77.10
2022-08-29T06:32:50.499Z,77.20
2022-08-29T06:35:17.251Z,77.20
2022-08-29T06:37:43.931Z,77.20
2022-08-29T06:40:11.029Z,77.10
2022-08-29T06:42:37.891Z,77.20
2022-08-29T06:45:05.466Z,77.20
2022-08-29T06:47:32.211Z,77.20
2022-08-29T06:49:59.195Z,77.30
2022-08-29T06:52:27.789Z,77.40
2022-08-29T06:54:54.706Z,77.40
2022-08-29T06:57:21.386Z,77.40
2022-08-29T06:59:48.107Z,77.40
2022-08-29T07:02:14.825Z,77.50
2022-08-29T07:04:41.597Z,77.80
2022-08-29T07:07:08.885Z,77.40
2022-08-29T07:09:35.565Z,77.30
2022-08-29T07:12:02.394Z,77.30
2022-08-29T07:14:29.200Z,77.20
2022-08-29T07:16:56.710Z,77.00
2022-08-29T07:19:23.394Z,77.00
2022-08-29T07:21:53.515Z,77.00
2022-08-29T07:24:25.103Z,77.00
2022-08-29T07:26:51.881Z,77.40
2022-08-29T07:29:20.309Z,77.10
2022-08-29T07:31:47.606Z,77.00
2022-08-29T07:34:14.649Z,77.00
2022-08-29T07:36:41.313Z,76.90
2022-08-29T07:39:09.618Z,76.80
2022-08-29T07:41:37.658Z,77.10
2022-08-29T07:44:04.764Z,77.00
2022-08-29T07:46:31.827Z,77.10
2022-08-29T07:48:59.055Z,77.20
2022-08-29T07:51:27.031Z,77.20
2022-08-29T07:53:54.038Z,77.30
2022-08-29T07:56:25.430Z,77.40
2022-08-29T07:58:52.551Z,77.40
2022-08-29T08:01:21.574Z,77.50
2022-08-29T08:03:50.076Z,77.40
2022-08-29T08:06:17.583Z,77.40
2022-08-29T08:08:44.284Z,77.40
2022-08-29T08:11:11.002Z,77.60
2022-08-29T08:13:38.089Z,77.60
2022-08-29T08:16:14.951Z,77.50
2022-08-29T08:18:42.591Z,77.40
2022-08-29T08:21:09.947Z,77.70
2022-08-29T08:23:37.030Z,77.60
2022-08-29T08:26:04.303Z,77.40
2022-08-29T08:28:31.111Z,77.30
2022-08-29T08:31:03.589Z,77.10
2022-08-29T08:33:34.993Z,77.20
2022-08-29T08:36:02.757Z,77.20
2022-08-29T08:38:29.903Z,77.10
2022-08-29T08:40:57.134Z,77.10
2022-08-29T08:43:27.588Z,77.30
2022-08-29T08:45:55.379Z,77.20
2022-08-29T08:48:24.106Z,77.10
2022-08-29T08:51:03.297Z,77.20
2022-08-29T08:53:37.587Z,77.20
2022-08-29T08:56:24.630Z,77.20
2022-08-29T08:59:10.159Z,77.20
2022-08-29T09:01:43.394Z,77.30
2022-08-29T09:04:10.637Z,77.20
2022-08-29T09:06:53.293Z,77.20
2022-08-29T09:09:29.805Z,77.20
2022-08-29T09:12:14.749Z,77.20
2022-08-29T09:14:47.075Z,77.20
2022-08-29T09:17:20.012Z,77.30
2022-08-29T09:19:47.376Z,77.40
2022-08-29T09:22:17.139Z,77.50
2022-08-29T09:24:49.168Z,77.40
2022-08-29T09:27:17.704Z,77.60
2022-08-29T09:29:44.418Z,78.10
2022-08-29T09:32:14.991Z,77.20
2022-08-29T09:37:35.006Z,77.20
2022-08-29T09:40:09.934Z,77.20
2022-08-29T09:42:39.591Z,77.00
2022-08-29T09:45:21.990Z,76.90
2022-08-29T09:47:48.818Z,76.80
2022-08-29T09:50:21.053Z,77.00
2022-08-29T09:52:52.511Z,77.10
2022-08-29T09:55:21.218Z,77.10
2022-08-29T09:57:52.173Z,77.20
2022-08-29T10:00:24.610Z,77.20
2022-08-29T10:02:54.158Z,77.20
2022-08-29T10:05:30.000Z,77.20
2022-08-29T10:07:58.069Z,77.20
2022-08-29T10:10:26.104Z,76.80
2022-08-29T10:13:12.021Z,77.20
2022-08-29T10:15:51.426Z,77.30
2022-08-29T10:18:30.327Z,77.20
2022-08-29T10:21:06.087Z,77.30
2022-08-29T10:23:37.947Z,77.30
2022-08-29T10:26:12.243Z,77.40
2022-08-29T10:28:48.659Z,77.70
2022-08-29T10:31:22.833Z,77.50
2022-08-29T10:34:06.814Z,77.50
2022-08-29T10:36:37.138Z,77.50
2022-08-29T10:39:06.862Z,77.60
2022-08-29T10:41:38.723Z,77.50
2022-08-29T10:44:08.562Z,77.80
2022-08-29T10:46:51.008Z,77.80
2022-08-29T10:49:36.598Z,77.80
2022-08-29T10:52:21.699Z,77.80
2022-08-29T10:54:51.973Z,77.70
2022-08-29T10:57:30.110Z,77.90
2022-08-29T11:00:05.127Z,77.90
2022-08-29T11:02:39.099Z,77.90
2022-08-29T11:05:15.241Z,77.70
2022-08-29T11:07:52.488Z,77.60
2022-08-29T11:10:27.096Z,77.60
2022-08-29T11:13:00.090Z,77.60
2022-08-29T11:15:26.927Z,77.60
2022-08-29T11:17:58.843Z,77.60
2022-08-29T11:20:28.517Z,77.30
2022-08-29T11:22:55.161Z,77.20
2022-08-29T11:25:22.282Z,77.80
2022-08-29T11:27:53.583Z,76.50
2022-08-29T11:30:33.425Z,77.00
2022-08-29T11:33:14.002Z,76.60
2022-08-29T11:35:43.509Z,76.50
2022-08-29T11:38:26.602Z,76.50
2022-08-29T11:43:51.251Z,76.40
2022-08-29T11:46:31.889Z,76.40
2022-08-29T11:49:18.546Z,76.60
2022-08-29T11:51:51.682Z,76.50
2022-08-29T11:54:24.949Z,76.60
2022-08-29T11:57:01.426Z,76.60
2022-08-29T11:59:46.676Z,76.70
2022-08-29T12:02:28.485Z,76.80
2022-08-29T12:04:55.413Z,76.60
2022-08-29T12:07:24.013Z,76.70
2022-08-29T12:09:53.424Z,76.70
2022-08-29T12:12:36.582Z,76.80
2022-08-29T12:15:23.245Z,77.00
2022-08-29T12:18:01.985Z,77.00
2022-08-29T12:20:35.526Z,77.00
2022-08-29T12:23:06.582Z,77.00
2022-08-29T12:25:43.381Z,77.00
2022-08-29T12:28:17.366Z,77.20
2022-08-29T12:30:47.123Z,77.20
2022-08-29T12:33:25.982Z,77.20
2022-08-29T12:36:00.879Z,77.20
2022-08-29T12:38:40.025Z,77.20
2022-08-29T12:41:11.490Z,77.30
2022-08-29T12:43:42.801Z,77.40
2022-08-29T12:46:19.515Z,77.50
2022-08-29T12:48:57.361Z,77.40
2022-08-29T12:51:38.717Z,77.40
2022-08-29T12:54:06.193Z,77.40
2022-08-29T12:56:33.404Z,77.40
2022-08-29T12:59:01.872Z,77.70
2022-08-29T13:01:33.394Z,77.50
2022-08-29T13:04:20.627Z,77.50
2022-08-29T13:07:04.889Z,77.50
2022-08-29T13:09:54.283Z,77.60
2022-08-29T13:12:20.910Z,77.60
2022-08-29T13:14:56.872Z,77.70
2022-08-29T13:17:25.326Z,77.90
2022-08-29T13:20:10.490Z,77.90
2022-08-29T13:22:37.433Z,78.00
2022-08-29T13:25:05.000Z,77.90
2022-08-29T13:27:31.725Z,78.10
2022-08-29T13:30:01.775Z,78.00
2022-08-29T13:32:28.549Z,78.10
2022-08-29T13:34:58.381Z,78.10
2022-08-29T13:37:32.310Z,78.50
2022-08-29T13:40:18.955Z,77.20
2022-08-29T13:42:45.752Z,78.40
2022-08-29T13:45:13.711Z,78.40
2022-08-29T13:47:49.281Z,78.30
2022-08-29T13:50:16.065Z,78.30
2022-08-29T13:52:42.856Z,78.40
2022-08-29T13:55:12.450Z,78.30
2022-08-29T13:57:40.507Z,78.30
2022-08-29T14:00:08.124Z,78.20
2022-08-29T14:02:35.477Z,78.30
2022-08-29T14:05:02.269Z,78.40
2022-08-29T14:07:31.014Z,78.40
2022-08-29T14:09:58.070Z,78.50
2022-08-29T14:12:32.955Z,78.20
2022-08-29T14:15:04.095Z,78.20
2022-08-29T14:17:33.382Z,78.30
2022-08-29T14:20:00.044Z,78.40
2022-08-29T14:22:26.665Z,78.30
2022-08-29T14:24:53.515Z,78.50
2022-08-29T14:27:20.866Z,78.60
2022-08-29T14:29:47.906Z,78.50
2022-08-29T14:32:14.925Z,78.70
2022-08-29T14:34:41.673Z,78.80
2022-08-29T14:37:17.747Z,78.80
2022-08-29T14:39:44.557Z,78.80
2022-08-29T14:42:16.733Z,78.80
2022-08-29T14:44:43.401Z,78.80
2022-08-29T14:47:10.168Z,78.80
2022-08-29T14:49:37.009Z,78.80
2022-08-29T14:52:04.765Z,78.90
2022-08-29T14:54:31.570Z,78.90
2022-08-29T14:56:58.368Z,78.90
2022-08-29T14:59:25.677Z,78.80
2022-08-29T15:01:54.749Z,78.90
2022-08-29T15:04:35.367Z,78.90
2022-08-29T15:07:07.801Z,78.90
2022-08-29T15:09:34.894Z,79.00
2022-08-29T15:12:01.659Z,79.00
2022-08-29T15:14:28.554Z,79.20
2022-08-29T15:16:55.295Z,79.00
2022-08-29T15:19:53.778Z,79.00
2022-08-29T15:22:09.048Z,77.90
2022-08-29T15:24:36.068Z,79.10
2022-08-29T15:27:03.124Z,79.10
2022-08-29T15:29:30.025Z,79.10
2022-08-29T15:31:57.441Z,79.10
2022-08-29T15:34:25.432Z,79.20
2022-08-29T15:36:52.870Z,79.20
2022-08-29T15:39:19.719Z,79.20
2022-08-29T15:41:46.455Z,79.10
2022-08-29T15:44:13.395Z,79.20
2022-08-29T15:46:40.455Z,79.30
2022-08-29T15:49:17.973Z,79.10
2022-08-29T15:51:44.715Z,79.20
2022-08-29T15:54:12.115Z,79.30
2022-08-29T15:56:38.858Z,79.20
2022-08-29T15:59:06.957Z,79.30
2022-08-29T16:01:41.982Z,79.30
2022-08-29T16:04:09.542Z,79.50
2022-08-29T16:06:37.621Z,79.40
2022-08-29T16:09:15.186Z,79.60
2022-08-29T16:11:42.892Z,79.40
2022-08-29T16:14:46.809Z,79.00
2022-08-29T16:16:59.127Z,79.20
2022-08-29T16:19:25.796Z,79.20
2022-08-29T16:21:52.663Z,79.30
2022-08-29T16:24:21.782Z,79.10
2022-08-29T16:26:48.692Z,79.20
2022-08-29T16:29:15.357Z,79.30
2022-08-29T16:31:53.909Z,79.20
2022-08-29T16:34:20.938Z,79.40
2022-08-29T16:36:47.614Z,79.10
2022-08-29T16:39:14.322Z,79.00
2022-08-29T16:41:41.088Z,79.00
2022-08-29T16:44:08.278Z,79.20
2022-08-29T16:46:34.981Z,79.10
2022-08-29T16:49:01.712Z,79.30
2022-08-29T16:51:28.422Z,79.20
2022-08-29T16:53:57.440Z,79.30
2022-08-29T16:56:24.095Z,79.20
2022-08-29T16:59:00.221Z,79.30
2022-08-29T17:01:27.042Z,79.30
2022-08-29T17:03:53.778Z,79.30
2022-08-29T17:06:20.619Z,79.30
2022-08-29T17:08:47.234Z,79.30
2022-08-29T17:11:13.913Z,79.30
2022-08-29T17:13:40.867Z,78.80
2022-08-29T17:16:08.554Z,78.90
2022-08-29T17:18:35.731Z,78.80
2022-08-29T17:21:02.445Z,78.90
2022-08-29T17:23:29.939Z,77.80
2022-08-29T17:25:57.854Z,78.80
2022-08-29T17:28:24.787Z,78.80
2022-08-29T17:30:51.554Z,78.80
2022-08-29T17:33:18.618Z,78.80
2022-08-29T17:35:45.617Z,78.90
2022-08-29T17:38:12.365Z,78.90
2022-08-29T17:40:39.250Z,78.70
2022-08-29T17:43:08.886Z,78.60
2022-08-29T17:45:36.923Z,78.60
2022-08-29T17:48:04.798Z,78.70
2022-08-29T17:50:31.906Z,78.70
2022-08-29T17:52:58.735Z,78.70
2022-08-29T17:55:27.627Z,78.70
2022-08-29T17:57:57.955Z,78.60
2022-08-29T18:00:25.133Z,78.60
2022-08-29T18:02:52.017Z,78.60
2022-08-29T18:05:19.071Z,78.60
2022-08-29T18:07:45.740Z,78.60
2022-08-29T18:10:14.276Z,78.60
2022-08-29T18:12:41.336Z,78.60
2022-08-29T18:15:09.871Z,78.60
2022-08-29T18:17:37.251Z,78.50
2022-08-29T18:20:04.376Z,78.50
2022-08-29T18:22:31.190Z,78.60
2022-08-29T18:24:58.229Z,78.60
2022-08-29T18:27:25.827Z,78.60
2022-08-29T18:29:53.165Z,78.60
2022-08-29T18:32:20.032Z,78.70
2022-08-29T18:34:47.125Z,78.60
2022-08-29T18:37:14.414Z,78.40
2022-08-29T18:39:42.771Z,78.20
2022-08-29T18:42:20.474Z,78.20
2022-08-29T18:44:56.134Z,78.00
2022-08-29T18:47:22.810Z,78.10
2022-08-29T18:50:07.925Z,78.00
2022-08-29T18:52:36.433Z,77.80
2022-08-29T18:55:04.386Z,77.70
2022-08-29T18:57:31.087Z,77.70
2022-08-29T18:59:57.762Z,77.60
2022-08-29T19:02:25.651Z,77.60
2022-08-29T19:04:52.691Z,77.60
2022-08-29T19:07:24.058Z,77.60
2022-08-29T19:09:53.018Z,77.60
2022-08-29T19:12:19.793Z,77.50
2022-08-29T19:14:46.549Z,77.40
2022-08-29T19:17:13.298Z,77.50
2022-08-29T19:19:58.699Z,77.50
2022-08-29T19:22:25.909Z,77.60
2022-08-29T19:24:52.587Z,78.10
2022-08-29T19:27:41.753Z,77.50
2022-08-29T19:30:06.909Z,77.50
2022-08-29T19:32:33.706Z,77.60
2022-08-29T19:35:00.387Z,77.70
2022-08-29T19:37:27.074Z,77.70
2022-08-29T19:39:53.742Z,77.70
2022-08-29T19:42:20.570Z,77.70
2022-08-29T19:44:47.202Z,77.70
2022-08-29T19:47:14.589Z,77.70
2022-08-29T19:49:45.333Z,78.20
2022-08-29T19:52:12.265Z,77.90
2022-08-29T19:54:38.926Z,77.90
2022-08-29T19:57:14.738Z,78.00
2022-08-29T19:59:42.279Z,78.00
2022-08-29T20:02:10.797Z,78.60
2022-08-29T20:04:37.865Z,78.00
2022-08-29T20:07:05.426Z,78.00
2022-08-29T20:09:32.259Z,78.10
2022-08-29T20:11:59.259Z,78.10
2022-08-29T20:14:26.006Z,78.20
2022-08-29T20:16:52.710Z,78.20
2022-08-29T20:19:21.429Z,78.20
2022-08-29T20:21:49.009Z,78.30
2022-08-29T20:24:16.522Z,78.50
2022-08-29T20:26:43.526Z,78.40
2022-08-29T20:29:11.653Z,78.40
2022-08-29T20:31:38.740Z,78.40
2022-08-29T20:34:05.592Z,78.40
2022-08-29T20:36:51.072Z,78.40
2022-08-29T20:39:19.131Z,78.40
2022-08-29T20:41:55.374Z,78.40
2022-08-29T20:44:22.609Z,78.50
2022-08-29T20:46:50.513Z,78.50
2022-08-29T20:49:18.615Z,78.50
2022-08-29T20:51:46.064Z,78.50
2022-08-29T20:54:13.278Z,78.60
2022-08-29T20:56:40.499Z,78.60
2022-08-29T20:59:07.251Z,78.60
2022-08-29T21:01:35.922Z,78.60
2022-08-29T21:04:22.638Z,78.60
2022-08-29T21:06:53.256Z,78.70
2022-08-29T21:09:19.939Z,79.30
2022-08-29T21:11:46.614Z,78.70
2022-08-29T21:14:14.059Z,78.80
2022-08-29T21:16:40.921Z,79.40
2022-08-29T21:19:08.713Z,78.70
2022-08-29T21:21:36.747Z,78.70
2022-08-29T21:24:04.172Z,78.60
2022-08-29T21:26:30.871Z,78.70
2022-08-29T21:28:57.555Z,78.70
2022-08-29T21:31:24.699Z,78.80
2022-08-29T21:33:51.466Z,78.80
2022-08-29T21:36:22.667Z,78.70
2022-08-29T21:38:51.518Z,78.70
2022-08-29T21:41:18.354Z,78.50
2022-08-29T21:43:45.134Z,78.60
2022-08-29T21:46:15.019Z,78.60
2022-08-29T21:48:41.727Z,78.50
2022-08-29T21:51:08.373Z,78.50
2022-08-29T21:53:35.049Z,78.50
2022-08-29T21:56:07.208Z,78.40
2022-08-29T21:58:33.870Z,78.40
2022-08-29T22:01:00.544Z,78.40
2022-08-29T22:03:27.348Z,78.40
2022-08-29T22:05:54.450Z,78.40
2022-08-29T22:08:21.261Z,78.40
2022-08-29T22:10:48.261Z,78.40
2022-08-29T22:13:16.015Z,78.40
2022-08-29T22:16:01.705Z,78.40
2022-08-29T22:18:29.005Z,78.40
2022-08-29T22:20:58.316Z,78.40
2022-08-29T22:23:25.011Z,78.50
2022-08-29T22:25:52.075Z,78.60
2022-08-29T22:28:18.727Z,78.60
2022-08-29T22:30:45.482Z,78.60
2022-08-29T22:33:16.159Z,78.60
2022-08-29T22:35:43.454Z,79.30
2022-08-29T22:38:10.234Z,78.70
2022-08-29T22:40:36.956Z,78.60
2022-08-29T22:43:03.902Z,78.80
2022-08-29T22:45:30.716Z,78.70
2022-08-29T22:47:57.447Z,78.70
2022-08-29T22:50:24.889Z,78.80
2022-08-29T22:52:55.238Z,78.70
2022-08-29T22:57:48.246Z,78.70
2022-08-29T23:00:17.230Z,78.70
2022-08-29T23:02:43.966Z,78.80
2022-08-29T23:05:11.209Z,78.80
2022-08-29T23:07:37.971Z,78.80
2022-08-29T23:10:06.862Z,78.80
2022-08-29T23:12:36.068Z,78.80
2022-08-29T23:15:07.251Z,78.90
2022-08-29T23:17:34.020Z,78.90
2022-08-29T23:20:00.779Z,78.80
2022-08-29T23:22:27.509Z,78.80
2022-08-29T23:24:58.150Z,78.70
2022-08-29T23:27:29.229Z,78.90
2022-08-29T23:29:56.339Z,78.90
2022-08-29T23:32:23.046Z,78.80
2022-08-29T23:34:49.691Z,78.80
2022-08-29T23:37:16.450Z,78.80
2022-08-29T23:39:43.133Z,78.70
2022-08-29T23:42:09.971Z,78.60
2022-08-29T23:44:36.612Z,78.60
2022-08-29T23:47:03.720Z,78.50
2022-08-29T23:49:30.407Z,78.40
2022-08-29T23:51:57.106Z,78.40
2022-08-29T23:54:26.080Z,78.40
2022-08-29T23:56:53.513Z,78.40
2022-08-29T23:59:39.074Z,78.40
